Berwick, Illinois
Current Conditions -  °F | °C
As of 6:55 AM on Thursday 23 Oct 2014 (Local Time) from KGBG Reporting Station
Clear Clear  
Wind Chill: 38°   Ceiling: Unl
Heat Index: 42°   Visibility: 10mi
Dew Point: 38°   Wind: 6mph
Humidity: 85%   Direction: 150°SSE
Pressure: 30.16"   Gusts: NA
Location:  40.8°N, 90.54°W
Report Text: KGBG 231155Z AUTO 15005KT 10SM CLR 06/03 A3016 RMK AO2 T00560032 10072 20047
Loading
Personal Weather Stations






























Interactive Weather Map
Tropical Storm Tracking
New forecast layout! Learn more

10-Day Weather Forecast

Advertisements
Track Severe Weather on mobile